Time;durP1;ratioP1;P1;durP2;ratioP2;P2;SDS_P1;SDS_P2;PMS_P1;PMS_P2;Temp;Humidity;BMP_temperature;BMP_pressure;BME280_temperature;BME280_humidity;BME280_pressure;Samples;Min_cycle;Max_cycle;Signal;HPM_P1;HPM_P2
2023/04/24 00:01:21;;;;;;;14.82;6.68;;;;;;;17.24;46.56;97197.81;4441960;32;20096;-82
2023/04/24 00:03:48;;;;;;;13.65;5.95;;;;;;;17.71;45.08;97191.25;4441647;32;20120;-82
2023/04/24 00:06:17;;;;;;;12.82;6.78;;;;;;;16.76;46.71;97185.25;4441543;32;20108;-83
2023/04/24 00:08:44;;;;;;;12.40;6.70;;;;;;;17.53;45.68;97183.16;4441626;32;20093;-82
2023/04/24 00:11:11;;;;;;;12.00;7.00;;;;;;;18.28;44.08;97181.94;4441529;32;20103;-82
2023/04/24 00:13:38;;;;;;;13.70;6.68;;;;;;;17.72;45.41;97177.25;4441654;32;20108;-82
2023/04/24 00:16:05;;;;;;;15.90;6.30;;;;;;;18.30;43.96;97176.59;4441878;32;20106;-82
2023/04/24 00:18:32;;;;;;;13.75;6.65;;;;;;;18.44;43.67;97174.41;4441285;32;20128;-82
2023/04/24 00:20:59;;;;;;;12.82;6.95;;;;;;;17.02;46.44;97177.94;4441834;32;20082;-82
2023/04/24 00:23:26;;;;;;;15.27;6.47;;;;;;;16.56;49.28;97178.19;4441661;32;20448;-82
2023/04/24 00:25:53;;;;;;;12.20;6.62;;;;;;;16.59;49.27;97168.38;4441341;32;20093;-82
2023/04/24 00:28:20;;;;;;;13.57;7.07;;;;;;;17.34;47.21;97170.03;4441414;32;20085;-82
2023/04/24 00:30:47;;;;;;;15.05;6.53;;;;;;;16.57;48.98;97172.03;4441633;32;20151;-82
2023/04/24 00:33:14;;;;;;;12.30;6.97;;;;;;;17.09;47.58;97165.19;4441199;32;20112;-82
2023/04/24 00:35:41;;;;;;;13.40;6.25;;;;;;;17.75;46.56;97173.53;4441630;32;20365;-82
2023/04/24 00:38:08;;;;;;;11.85;6.50;;;;;;;17.55;46.85;97160.41;4441540;32;20496;-82
2023/04/24 00:40:35;;;;;;;15.55;7.43;;;;;;;17.29;47.59;97152.16;4441312;32;20507;-82
2023/04/24 00:43:02;;;;;;;12.93;6.75;;;;;;;17.19;47.56;97146.06;4441535;32;20112;-82
2023/04/24 00:45:31;;;;;;;12.57;7.10;;;;;;;17.16;48.13;97143.72;4441541;32;20166;-82
2023/04/24 00:47:58;;;;;;;16.23;7.18;;;;;;;16.40;50.42;97145.59;4427385;32;20092;-82
2023/04/24 00:50:26;;;;;;;15.68;7.25;;;;;;;16.59;49.96;97144.09;4441562;32;20069;-82
2023/04/24 00:52:53;;;;;;;16.15;7.50;;;;;;;15.45;52.90;97147.00;4441272;32;20086;-82
2023/04/24 00:55:20;;;;;;;15.68;7.15;;;;;;;16.26;52.10;97151.06;4441033;32;20098;-82
2023/04/24 00:57:47;;;;;;;15.40;7.22;;;;;;;16.52;50.96;97153.38;4427668;32;20089;-82
2023/04/24 01:00:16;;;;;;;13.85;7.35;;;;;;;15.43;54.21;97148.06;4441175;32;20136;-82
2023/04/24 01:02:46;;;;;;;13.93;7.93;;;;;;;14.64;58.16;97150.47;4441441;32;20090;-82
2023/04/24 01:05:14;;;;;;;14.90;7.62;;;;;;;15.51;54.58;97141.31;4441408;32;20102;-82
2023/04/24 01:07:45;;;;;;;14.80;7.68;;;;;;;15.61;54.94;97142.28;4427190;32;20085;-82
2023/04/24 01:10:13;;;;;;;16.27;7.62;;;;;;;15.00;55.91;97156.50;4441708;32;20074;-82
2023/04/24 01:12:40;;;;;;;16.37;7.75;;;;;;;15.31;57.36;97148.06;4441116;32;20116;-82
2023/04/24 01:15:08;;;;;;;14.35;7.78;;;;;;;16.12;53.66;97151.34;4440862;32;20159;-82
2023/04/24 01:17:35;;;;;;;16.15;7.70;;;;;;;15.42;56.78;97151.56;4441217;32;20134;-82
2023/04/24 01:20:05;;;;;;;14.07;7.65;;;;;;;17.16;50.54;97143.72;4441194;32;20081;-82
2023/04/24 01:22:35;;;;;;;14.77;7.65;;;;;;;17.24;50.43;97151.72;4441044;32;20109;-83
2023/04/24 01:25:03;;;;;;;12.65;7.22;;;;;;;17.50;49.71;97148.69;4441318;32;20159;-82
2023/04/24 01:27:30;;;;;;;22.52;8.32;;;;;;;17.06;50.84;97148.88;4427276;32;20452;-82
2023/04/24 01:29:57;;;;;;;20.98;8.45;;;;;;;17.53;50.10;97138.00;4440737;32;20454;-83
2023/04/24 01:32:25;;;;;;;14.32;7.68;;;;;;;17.50;49.59;97143.47;4427487;32;20448;-82
2023/04/24 01:34:52;;;;;;;14.50;7.85;;;;;;;18.35;46.71;97146.50;4441217;32;20192;-82
2023/04/24 01:37:19;;;;;;;15.60;7.93;;;;;;;16.56;51.88;97139.97;4440949;32;20137;-82
2023/04/24 01:39:46;;;;;;;15.18;8.20;;;;;;;17.98;49.21;97137.66;4441143;32;20074;-82
2023/04/24 01:42:14;;;;;;;16.37;8.10;;;;;;;17.85;49.07;97133.47;4440859;32;20155;-83
2023/04/24 01:44:41;;;;;;;16.25;7.87;;;;;;;17.03;50.76;97128.28;4427333;32;20486;-82
2023/04/24 01:47:08;;;;;;;14.87;7.87;;;;;;;17.84;49.59;97125.78;4441181;32;20081;-82
2023/04/24 01:49:37;;;;;;;19.30;7.68;;;;;;;16.49;53.40;97128.41;4426813;32;20108;-82
2023/04/24 01:52:04;;;;;;;18.37;8.35;;;;;;;17.06;52.52;97120.19;4441277;32;20139;-82
2023/04/24 01:54:31;;;;;;;15.20;8.15;;;;;;;17.58;51.47;97120.19;4441022;32;20732;-83
2023/04/24 01:57:00;;;;;;;17.62;8.18;;;;;;;17.07;53.52;97113.22;4440742;32;20157;-82
2023/04/24 01:59:28;;;;;;;17.10;7.82;;;;;;;16.55;54.14;97117.47;4439882;32;20077;-82
2023/04/24 02:01:55;;;;;;;17.12;7.78;;;;;;;17.16;52.87;97117.66;4427185;32;20113;-82
2023/04/24 02:04:22;;;;;;;15.35;8.05;;;;;;;16.94;52.84;97107.38;4439840;32;20165;-82
2023/04/24 02:06:49;;;;;;;17.20;8.55;;;;;;;17.18;52.15;97115.75;4441014;32;20081;-82
2023/04/24 02:09:16;;;;;;;14.98;7.68;;;;;;;16.31;55.82;97106.47;4440862;32;20150;-82
2023/04/24 02:11:42;;;;;;;17.17;8.85;;;;;;;16.34;56.07;97098.38;4440345;32;20093;-82
2023/04/24 02:14:09;;;;;;;16.60;8.98;;;;;;;17.24;53.09;97096.16;4439806;32;20748;-82
2023/04/24 02:16:36;;;;;;;17.75;9.00;;;;;;;17.05;54.05;97083.84;4441044;32;20466;-82
2023/04/24 02:19:03;;;;;;;14.65;7.90;;;;;;;17.49;52.93;97092.28;4440432;32;20108;-82
2023/04/24 02:21:30;;;;;;;16.27;8.30;;;;;;;16.94;54.61;97084.75;4441040;32;20112;-82
2023/04/24 02:23:57;;;;;;;14.48;8.18;;;;;;;17.66;51.85;97083.84;4440867;32;20101;-82
2023/04/24 02:26:24;;;;;;;18.02;8.93;;;;;;;17.44;52.53;97097.03;4440523;32;20099;-82
2023/04/24 02:28:51;;;;;;;16.30;8.77;;;;;;;16.70;54.44;97082.41;4440745;32;20111;-82
2023/04/24 02:31:18;;;;;;;17.20;8.65;;;;;;;16.51;55.48;97089.22;4440490;32;20089;-82
2023/04/24 02:33:45;;;;;;;18.25;9.48;;;;;;;17.61;51.72;97081.59;4440752;32;20511;-82
2023/04/24 02:36:13;;;;;;;20.85;9.20;;;;;;;16.81;53.71;97076.31;4440793;32;20145;-82
2023/04/24 02:38:40;;;;;;;16.00;9.10;;;;;;;16.58;54.74;97080.75;4440391;32;20098;-82
2023/04/24 02:41:07;;;;;;;16.60;9.20;;;;;;;16.91;53.71;97074.59;4440847;32;20435;-83
2023/04/24 02:43:34;;;;;;;16.75;9.13;;;;;;;16.24;55.71;97076.66;4426778;32;20124;-82
2023/04/24 02:46:01;;;;;;;17.10;9.93;;;;;;;16.55;54.73;97075.00;4440390;32;20361;-82
2023/04/24 02:48:28;;;;;;;17.17;8.85;;;;;;;16.89;53.30;97063.44;4440588;32;20081;-82
2023/04/24 02:50:55;;;;;;;19.10;9.27;;;;;;;17.42;51.94;97067.66;4426817;32;20089;-82
2023/04/24 02:53:23;;;;;;;16.35;9.35;;;;;;;17.54;51.71;97064.00;4440313;32;20163;-82
2023/04/24 02:55:50;;;;;;;14.65;8.57;;;;;;;17.68;51.00;97060.22;4440632;32;20095;-82
2023/04/24 02:58:17;;;;;;;16.02;9.13;;;;;;;18.67;47.97;97054.84;4439330;32;20154;-82
2023/04/24 03:00:44;;;;;;;18.15;9.30;;;;;;;18.09;49.25;97051.41;4440410;32;20157;-82
2023/04/24 03:03:11;;;;;;;16.20;9.23;;;;;;;17.78;50.30;97055.88;4440575;32;20098;-82
2023/04/24 03:05:38;;;;;;;16.80;8.95;;;;;;;17.76;50.76;97049.97;4440584;32;20107;-82
2023/04/24 03:08:06;;;;;;;14.70;8.80;;;;;;;18.86;47.85;97051.37;4440086;32;20082;-83
2023/04/24 03:10:32;;;;;;;16.95;9.02;;;;;;;19.02;47.72;97048.16;4440646;32;20094;-83
2023/04/24 03:12:59;;;;;;;15.73;8.57;;;;;;;18.56;48.49;97046.28;4440285;32;20085;-82
2023/04/24 03:15:26;;;;;;;16.67;9.00;;;;;;;18.31;49.21;97039.88;4439958;32;20218;-83
2023/04/24 03:17:53;;;;;;;16.67;9.60;;;;;;;18.14;49.37;97039.56;4440304;32;20132;-83
2023/04/24 03:20:22;;;;;;;18.27;9.55;;;;;;;17.74;49.94;97033.63;4440340;32;20097;-83
2023/04/24 03:22:49;;;;;;;15.63;8.82;;;;;;;18.20;49.67;97041.66;4440246;32;20428;-83
2023/04/24 03:25:16;;;;;;;14.40;7.62;;;;;;;18.06;49.61;97042.03;4440149;32;20148;-82
2023/04/24 03:27:43;;;;;;;16.25;8.32;;;;;;;16.41;52.35;97043.09;4439930;32;20152;-82
2023/04/24 03:30:10;;;;;;;15.07;7.65;;;;;;;16.30;53.58;97056.19;4440260;32;20094;-82
2023/04/24 03:32:39;;;;;;;14.43;7.72;;;;;;;16.85;51.96;97050.81;4440217;32;20584;-82
2023/04/24 03:35:08;;;;;;;18.02;8.52;;;;;;;15.58;55.07;97048.91;4439779;32;20113;-82
2023/04/24 03:37:35;;;;;;;17.35;8.80;;;;;;;16.04;54.84;97047.84;4440214;32;20073;-82
2023/04/24 03:40:02;;;;;;;19.65;8.55;;;;;;;16.48;53.25;97054.69;4440048;32;20150;-82
2023/04/24 03:42:29;;;;;;;15.15;8.40;;;;;;;16.70;52.24;97050.34;4439812;32;20463;-82
2023/04/24 03:44:56;;;;;;;16.10;8.95;;;;;;;16.87;51.93;97043.69;4439963;32;20092;-83
2023/04/24 03:47:23;;;;;;;15.07;8.82;;;;;;;17.01;51.43;97044.19;4440023;32;20154;-83
2023/04/24 03:49:50;;;;;;;15.63;8.80;;;;;;;17.27;50.60;97043.75;4439591;32;20090;-83
2023/04/24 03:52:17;;;;;;;15.15;8.40;;;;;;;17.14;51.09;97040.56;4440038;32;20155;-83
2023/04/24 03:54:44;;;;;;;15.02;8.80;;;;;;;17.66;49.91;97051.72;4439897;32;20406;-83
2023/04/24 03:57:11;;;;;;;16.90;8.50;;;;;;;17.10;51.26;97041.75;4439650;32;20097;-82
2023/04/24 03:59:37;;;;;;;15.68;9.20;;;;;;;17.86;49.22;97042.97;4439871;32;20436;-82
2023/04/24 04:02:04;;;;;;;16.42;8.88;;;;;;;17.46;50.61;97049.03;4439837;32;20143;-83
2023/04/24 04:04:31;;;;;;;14.75;8.90;;;;;;;17.92;48.77;97043.25;4439393;32;20124;-82
2023/04/24 04:07:01;;;;;;;17.80;9.85;;;;;;;17.20;51.36;97040.00;4439738;32;20159;-82
2023/04/24 04:09:28;;;;;;;18.40;9.70;;;;;;;16.41;54.41;97043.09;4439389;32;20098;-82
2023/04/24 04:11:55;;;;;;;18.60;9.00;;;;;;;17.04;53.76;97046.53;4439869;32;20105;-82
2023/04/24 04:14:23;;;;;;;17.65;10.40;;;;;;;17.30;52.97;97046.91;4439880;32;20108;-83
2023/04/24 04:16:50;;;;;;;17.27;8.60;;;;;;;17.44;54.11;97048.34;4439279;32;20150;-83
2023/04/24 04:19:20;;;;;;;18.20;9.07;;;;;;;17.75;51.81;97037.88;4438379;32;20127;-83
2023/04/24 04:21:51;;;;;;;15.68;8.65;;;;;;;17.66;51.82;97046.50;4425690;32;20110;-83
2023/04/24 04:24:20;;;;;;;16.95;9.00;;;;;;;17.20;53.44;97037.41;4439114;32;20154;-83
2023/04/24 04:26:47;;;;;;;16.70;9.27;;;;;;;18.21;50.33;97042.47;4440167;32;20342;-83
2023/04/24 04:29:15;;;;;;;15.50;8.98;;;;;;;17.45;52.94;97047.41;4441489;32;20102;-83
2023/04/24 04:31:44;;;;;;;14.00;7.82;;;;;;;17.80;50.68;97036.53;4441419;32;20093;-82
2023/04/24 04:34:12;;;;;;;17.20;9.30;;;;;;;18.53;48.83;97049.19;4441443;32;20093;-82
2023/04/24 04:36:40;;;;;;;16.20;8.30;;;;;;;17.96;50.53;97040.38;4441596;32;20077;-83
2023/04/24 04:39:07;;;;;;;18.40;8.60;;;;;;;18.63;49.01;97043.00;4440107;32;20122;-83
2023/04/24 04:41:40;;;;;;;16.25;8.48;;;;;;;18.52;50.47;97047.56;4441747;32;20475;-82
2023/04/24 04:44:08;;;;;;;15.80;8.15;;;;;;;19.15;48.15;97042.63;4441603;32;20467;-83
2023/04/24 04:46:37;;;;;;;16.33;8.15;;;;;;;19.10;49.08;97036.97;4427429;32;20082;-83
2023/04/24 04:49:04;;;;;;;16.48;8.52;;;;;;;19.11;48.66;97042.06;4441292;32;20420;-83
2023/04/24 04:51:31;;;;;;;24.52;8.85;;;;;;;19.71;47.10;97054.78;4441631;32;20102;-83
2023/04/24 04:53:58;;;;;;;17.67;8.98;;;;;;;19.58;47.25;97048.09;4441071;32;20101;-83
2023/04/24 04:56:25;;;;;;;15.95;8.52;;;;;;;19.67;46.75;97046.38;4441526;32;20436;-83
2023/04/24 04:58:53;;;;;;;17.70;8.88;;;;;;;19.36;47.54;97045.84;4440974;32;20381;-82
2023/04/24 05:01:19;;;;;;;15.73;9.40;;;;;;;19.39;47.74;97047.34;4441582;32;20101;-83
2023/04/24 05:03:46;;;;;;;15.60;8.73;;;;;;;19.47;47.70;97050.06;4441389;32;20104;-83
2023/04/24 05:06:14;;;;;;;15.43;9.07;;;;;;;19.41;47.53;97048.00;4441172;32;20097;-83
2023/04/24 05:08:40;;;;;;;19.62;9.32;;;;;;;19.44;47.38;97051.16;4441336;32;20445;-83
2023/04/24 05:11:07;;;;;;;16.30;9.50;;;;;;;19.22;49.14;97054.13;4441338;32;20116;-83
2023/04/24 05:13:35;;;;;;;16.37;9.30;;;;;;;19.41;48.73;97054.06;4440708;32;20097;-82
2023/04/24 05:16:07;;;;;;;16.87;9.52;;;;;;;19.70;46.75;97061.81;4441415;32;20078;-83
2023/04/24 05:18:34;;;;;;;19.27;9.50;;;;;;;19.41;47.08;97053.25;4441286;32;20120;-83
2023/04/24 05:21:01;;;;;;;17.60;9.13;;;;;;;19.78;46.86;97066.28;4441027;32;20163;-83
2023/04/24 05:23:28;;;;;;;17.25;9.35;;;;;;;19.87;47.05;97065.41;4441034;32;20101;-83
2023/04/24 05:25:55;;;;;;;18.35;9.98;;;;;;;19.69;47.38;97062.78;4441287;32;20107;-83
2023/04/24 05:28:22;;;;;;;19.10;9.65;;;;;;;19.88;47.55;97067.06;4426836;32;20106;-83
2023/04/24 05:30:49;;;;;;;15.90;9.23;;;;;;;19.49;49.50;97063.81;4441217;32;20550;-83
2023/04/24 05:33:16;;;;;;;15.85;9.18;;;;;;;20.79;44.91;97071.22;4441171;32;20093;-83
2023/04/24 05:35:46;;;;;;;15.50;9.20;;;;;;;19.77;46.02;97062.84;4440765;32;20452;-83
2023/04/24 05:38:14;;;;;;;19.90;9.40;;;;;;;19.92;45.55;97063.19;4440251;32;20117;-83
2023/04/24 05:40:41;;;;;;;18.12;9.55;;;;;;;20.20;45.46;97069.19;4441191;32;20112;-83
2023/04/24 05:43:07;;;;;;;17.25;9.23;;;;;;;20.14;46.27;97070.62;4440727;32;20154;-83
2023/04/24 05:45:35;;;;;;;14.45;8.52;;;;;;;21.23;44.46;97067.72;4441144;32;20160;-83
2023/04/24 05:48:03;;;;;;;13.65;8.32;;;;;;;20.93;45.34;97061.13;4440643;32;20097;-83
2023/04/24 05:50:30;;;;;;;15.48;9.30;;;;;;;21.18;44.06;97072.63;4415297;32;837549;-82
2023/04/24 05:53:02;;;;;;;17.55;9.50;;;;;;;20.60;47.45;97063.53;4441228;32;20085;-84
2023/04/24 05:55:30;;;;;;;15.05;9.40;;;;;;;20.94;47.43;97053.09;4440761;32;20468;-83
2023/04/24 05:57:57;;;;;;;16.95;9.30;;;;;;;21.02;47.34;97068.06;4441117;32;20171;-83
2023/04/24 06:00:24;;;;;;;15.52;9.13;;;;;;;20.49;48.69;97071.63;4441051;32;20089;-84
2023/04/24 06:02:52;;;;;;;14.70;9.25;;;;;;;20.07;49.89;97072.19;4426946;32;20089;-84
2023/04/24 06:05:20;;;;;;;16.37;8.82;;;;;;;20.27;49.18;97070.25;4440750;32;20413;-83
2023/04/24 06:07:47;;;;;;;14.60;9.23;;;;;;;18.52;55.07;97071.06;4440813;32;20113;-83
2023/04/24 06:10:15;;;;;;;15.57;9.13;;;;;;;18.68;55.15;97069.53;4440314;32;20104;-83
2023/04/24 06:12:42;;;;;;;15.07;8.88;;;;;;;19.70;52.05;97071.47;4440483;32;20107;-84
2023/04/24 06:15:09;;;;;;;15.20;9.07;;;;;;;19.97;50.84;97068.81;4440621;32;20085;-84
2023/04/24 06:17:36;;;;;;;16.00;8.68;;;;;;;21.02;47.46;97070.69;4440444;32;20410;-84
2023/04/24 06:20:05;;;;;;;14.23;7.65;;;;;;;21.31;47.10;97078.28;4440828;32;20117;-81
2023/04/24 06:22:32;;;;;;;13.45;5.93;;;;;;;21.48;45.97;97087.03;4441776;32;20093;-83
2023/04/24 06:25:00;;;;;;;9.15;4.25;;;;;;;22.03;44.21;97086.62;4441442;32;20082;-82
2023/04/24 06:27:27;;;;;;;9.50;4.55;;;;;;;21.70;44.51;97081.25;4440775;32;20102;-83
2023/04/24 06:29:55;;;;;;;10.10;4.62;;;;;;;21.73;45.69;97078.31;4440278;32;20089;-83
2023/04/24 06:32:25;;;;;;;9.55;5.30;;;;;;;21.51;46.92;97074.44;4439642;32;20104;-83
2023/04/24 06:34:52;;;;;;;10.30;4.97;;;;;;;22.09;46.49;97084.19;4441150;32;20119;-83
2023/04/24 06:37:22;;;;;;;10.23;4.53;;;;;;;22.07;46.38;97080.09;4441190;32;20106;-81
2023/04/24 06:39:50;;;;;;;9.88;4.37;;;;;;;22.38;44.41;97073.25;4440985;32;20105;-83
2023/04/24 06:42:17;;;;;;;11.93;4.70;;;;;;;21.85;45.11;97077.03;4441353;32;20089;-83
2023/04/24 06:44:45;;;;;;;9.75;4.40;;;;;;;21.11;46.89;97075.03;4440610;32;20105;-82
2023/04/24 06:47:13;;;;;;;9.38;4.40;;;;;;;20.33;47.74;97068.84;4442979;32;20093;-82
2023/04/24 06:49:40;;;;;;;8.48;4.15;;;;;;;20.27;48.91;97072.88;4440568;32;20170;-83
2023/04/24 06:52:08;;;;;;;10.30;4.20;;;;;;;20.09;48.28;97072.03;4441599;32;20089;-83
2023/04/24 06:54:35;;;;;;;10.10;4.30;;;;;;;20.29;48.09;97072.72;4439852;32;20093;-83
2023/04/24 06:57:02;;;;;;;10.02;3.90;;;;;;;20.53;47.64;97072.16;4441231;32;20230;-83
2023/04/24 06:59:30;;;;;;;8.68;4.10;;;;;;;20.78;46.26;97066.13;4439080;32;20163;-83
2023/04/24 07:01:57;;;;;;;8.80;3.90;;;;;;;20.30;47.14;97072.56;4440407;32;20089;-83
2023/04/24 07:04:24;;;;;;;8.75;3.97;;;;;;;20.09;47.36;97075.47;4445204;32;20050;-84
2023/04/24 07:06:55;;;;;;;9.05;3.75;;;;;;;20.05;48.19;97063.66;4454410;32;20089;-83
2023/04/24 07:09:38;;;;;;;9.63;4.62;;;;;;;19.51;50.06;97074.94;4455180;32;20077;-83
2023/04/24 07:12:10;;;;;;;9.27;3.75;;;;;;;20.12;48.79;97069.94;4454301;32;20092;-83
2023/04/24 07:14:37;;;;;;;9.32;3.97;;;;;;;19.98;49.56;97074.84;4454891;32;20062;-83
2023/04/24 07:17:06;;;;;;;9.00;3.95;;;;;;;19.99;49.44;97079.97;4455085;32;20070;-84
2023/04/24 07:19:51;;;;;;;8.73;3.90;;;;;;;20.14;48.50;97073.25;4455020;32;20066;-83
2023/04/24 07:22:18;;;;;;;10.23;3.95;;;;;;;19.53;50.58;97078.25;4453753;32;20100;-83
2023/04/24 07:24:45;;;;;;;8.85;3.80;;;;;;;19.60;50.64;97074.13;4454508;32;20111;-83
2023/04/24 07:27:14;;;;;;;9.18;3.67;;;;;;;19.88;49.46;97077.53;4451030;32;20073;-83
2023/04/24 07:29:41;;;;;;;10.05;4.30;;;;;;;19.78;49.29;97072.38;4452312;32;20081;-84
2023/04/24 07:32:09;;;;;;;8.93;3.85;;;;;;;19.99;49.09;97073.87;4450382;32;20057;-84
2023/04/24 07:34:36;;;;;;;9.25;4.18;;;;;;;20.26;47.03;97067.78;4448971;32;20616;-83
2023/04/24 07:37:03;;;;;;;13.48;3.70;;;;;;;20.20;48.34;97077.03;4443579;32;20157;-82
2023/04/24 07:39:30;;;;;;;8.90;3.67;;;;;;;20.44;47.49;97073.87;4443832;32;20080;-82
2023/04/24 07:41:58;;;;;;;10.30;3.85;;;;;;;20.75;46.58;97076.91;4442550;32;20143;-82
2023/04/24 07:44:26;;;;;;;9.63;4.18;;;;;;;20.21;47.86;97070.88;4440634;32;20147;-83
2023/04/24 07:46:53;;;;;;;8.93;3.78;;;;;;;20.12;47.90;97080.44;4442662;32;20122;-83
2023/04/24 07:49:20;;;;;;;11.93;4.00;;;;;;;20.08;48.70;97079.06;4443799;32;20161;-82
2023/04/24 07:51:47;;;;;;;9.57;3.80;;;;;;;19.79;49.15;97081.87;4442410;32;20104;-82
2023/04/24 07:54:14;;;;;;;9.00;3.97;;;;;;;19.86;49.72;97077.69;4451782;32;20058;-82
2023/04/24 07:56:42;;;;;;;8.18;3.90;;;;;;;20.40;48.38;97080.34;4445711;32;20431;-84
2023/04/24 07:59:29;;;;;;;7.55;3.60;;;;;;;20.77;46.42;97073.16;4452098;32;20070;-83
2023/04/24 08:01:56;;;;;;;9.20;3.47;;;;;;;20.64;46.77;97075.38;4527500;26;20061;-84
2023/04/24 08:04:23;;;;;;;8.05;3.65;;;;;;;21.07;44.89;97069.28;4459151;32;20088;-83
2023/04/24 08:06:50;;;;;;;7.93;3.50;;;;;;;20.86;46.04;97073.22;4458086;32;20085;-82
2023/04/24 08:09:17;;;;;;;8.25;3.47;;;;;;;21.00;45.34;97075.28;4456642;32;20156;-82
2023/04/24 08:11:45;;;;;;;7.80;3.70;;;;;;;21.33;44.72;97078.94;4459629;32;20061;-82
2023/04/24 08:14:13;;;;;;;11.52;3.62;;;;;;;21.11;44.58;97079.44;4457782;32;20085;-83
2023/04/24 08:16:40;;;;;;;7.28;3.15;;;;;;;21.42;45.49;97070.16;4458226;32;20152;-83
2023/04/24 08:19:08;;;;;;;9.05;3.37;;;;;;;21.02;45.96;97078.56;4463169;32;20136;-82
2023/04/24 08:21:35;;;;;;;8.93;3.65;;;;;;;21.42;43.90;97072.78;4471703;32;20062;-82
2023/04/24 08:24:05;;;;;;;8.20;3.80;;;;;;;21.22;44.11;97068.69;4453682;32;20081;-83
2023/04/24 08:26:31;;;;;;;8.25;3.70;;;;;;;21.56;43.94;97059.03;4466753;32;20061;-83
2023/04/24 08:28:59;;;;;;;8.75;3.50;;;;;;;22.11;43.41;97068.25;4466196;32;20065;-83
2023/04/24 08:31:26;;;;;;;11.05;3.60;;;;;;;22.23;42.49;97062.56;4466382;32;20065;-83
2023/04/24 08:33:54;;;;;;;8.70;3.45;;;;;;;22.31;43.97;97071.41;4468124;32;20119;-82
2023/04/24 08:36:21;;;;;;;15.77;3.90;;;;;;;21.83;43.68;97055.38;4461101;32;20073;-84
2023/04/24 08:39:07;;;;;;;6.78;3.22;;;;;;;21.32;43.44;97072.06;4470451;32;20089;-82
2023/04/24 08:41:34;;;;;;;8.60;3.50;;;;;;;21.70;44.59;97077.81;4470765;32;20061;-81
2023/04/24 08:44:02;;;;;;;9.00;3.72;;;;;;;21.75;44.02;97076.34;4469813;32;20065;-81
2023/04/24 08:46:30;;;;;;;8.07;3.35;;;;;;;21.56;44.42;97071.34;4462697;32;20107;-81
2023/04/24 08:48:57;;;;;;;8.10;3.25;;;;;;;21.81;43.76;97080.16;4452318;32;20083;-81
2023/04/24 08:51:26;;;;;;;7.85;3.17;;;;;;;21.92;43.05;97074.59;4466488;32;20053;-83
2023/04/24 08:53:54;;;;;;;7.35;3.53;;;;;;;21.64;42.42;97074.00;4446467;32;20077;-82
2023/04/24 08:56:23;;;;;;;9.52;3.60;;;;;;;22.03;43.17;97076.94;4458579;32;20112;-82
2023/04/24 08:58:51;;;;;;;8.75;3.70;;;;;;;22.15;42.82;97075.69;4442648;32;20109;-82
2023/04/24 09:01:19;;;;;;;8.25;3.40;;;;;;;22.06;42.81;97079.25;4443133;32;20089;-78
2023/04/24 09:03:49;;;;;;;8.30;3.30;;;;;;;22.47;41.69;97077.53;4456638;32;20138;-82
2023/04/24 09:06:18;;;;;;;7.62;3.33;;;;;;;22.80;40.73;97077.53;4442431;32;20105;-81
2023/04/24 09:08:45;;;;;;;8.07;3.42;;;;;;;22.73;40.83;97079.97;4442598;32;20175;-81
2023/04/24 09:11:12;;;;;;;6.12;2.78;;;;;;;22.62;41.17;97080.31;4442812;32;20099;-81
2023/04/24 09:13:39;;;;;;;9.35;3.55;;;;;;;22.12;41.36;97073.38;4456518;32;20491;-81
2023/04/24 09:16:06;;;;;;;7.68;3.25;;;;;;;22.28;42.73;97080.44;4456664;32;20352;-81
2023/04/24 09:18:35;;;;;;;10.55;3.72;;;;;;;22.23;42.40;97082.75;4456277;32;20100;-81
2023/04/24 09:21:04;;;;;;;7.93;3.50;;;;;;;21.97;42.42;97074.13;4456738;32;20085;-81
2023/04/24 09:23:32;;;;;;;8.75;3.22;;;;;;;22.18;41.10;97070.09;4456532;32;20077;-81
2023/04/24 09:26:00;;;;;;;10.77;3.35;;;;;;;22.06;41.79;97073.16;4456291;32;20097;-81
2023/04/24 09:28:35;;;;;;;7.65;3.12;;;;;;;22.11;41.80;97079.59;4456576;32;20444;-81
2023/04/24 09:31:07;;;;;;;8.55;3.30;;;;;;;22.29;42.12;97073.38;4456410;32;20561;-81
2023/04/24 09:33:35;;;;;;;9.27;3.50;;;;;;;22.20;42.56;97073.38;4456169;32;20427;-81
2023/04/24 09:36:02;;;;;;;7.07;3.20;;;;;;;22.03;41.63;97079.56;4456540;32;20166;-81
2023/04/24 09:38:34;;;;;;;7.35;3.28;;;;;;;21.91;42.37;97072.97;4456389;32;20162;-81
2023/04/24 09:41:13;;;;;;;17.17;3.40;;;;;;;21.55;42.90;97067.91;4456155;32;20364;-81
2023/04/24 09:43:40;;;;;;;9.68;3.20;;;;;;;21.86;43.46;97077.84;4456414;32;20431;-81
2023/04/24 09:46:09;;;;;;;7.60;3.40;;;;;;;21.75;42.99;97072.91;4456667;32;20085;-82
2023/04/24 09:48:37;;;;;;;8.52;3.47;;;;;;;21.81;43.16;97075.72;4456116;32;20097;-81
2023/04/24 09:51:07;;;;;;;9.32;3.60;;;;;;;22.04;43.45;97069.88;4456389;32;20107;-82
2023/04/24 09:53:33;;;;;;;9.18;3.47;;;;;;;21.77;43.41;97069.13;4455866;32;20147;-81
2023/04/24 09:56:08;;;;;;;7.68;3.28;;;;;;;22.16;43.33;97073.87;4456267;32;20153;-81
2023/04/24 09:58:36;;;;;;;7.05;3.05;;;;;;;22.08;42.82;97069.41;4442367;32;20209;-82
2023/04/24 10:01:03;;;;;;;8.07;3.28;;;;;;;22.89;40.90;97058.16;4455851;32;20153;-82
2023/04/24 10:03:31;;;;;;;7.30;3.37;;;;;;;23.22;41.22;97065.97;4456381;32;20080;-82
2023/04/24 10:06:02;;;;;;;8.88;3.45;;;;;;;22.89;40.89;97071.31;4456316;32;20089;-81
2023/04/24 10:08:35;;;;;;;7.93;3.50;;;;;;;22.32;41.31;97071.25;4442254;32;20170;-81
2023/04/24 10:11:03;;;;;;;7.78;3.42;;;;;;;22.40;42.56;97068.63;4456138;32;20151;-81
2023/04/24 10:13:30;;;;;;;8.48;3.62;;;;;;;22.30;43.15;97075.03;4442329;32;20158;-81
2023/04/24 10:15:59;;;;;;;9.23;3.65;;;;;;;22.21;42.70;97067.13;4441870;32;20158;-80
2023/04/24 10:18:26;;;;;;;8.43;3.60;;;;;;;22.19;43.08;97079.59;4442150;32;20436;-80
2023/04/24 10:20:54;;;;;;;7.47;3.35;;;;;;;22.77;43.09;97075.22;4456189;32;20081;-80
2023/04/24 10:23:23;;;;;;;8.82;3.28;;;;;;;22.25;43.74;97070.28;4442014;32;20104;-80
2023/04/24 10:25:51;;;;;;;9.73;3.22;;;;;;;22.28;43.66;97074.37;4455480;32;20101;-81
2023/04/24 10:28:19;;;;;;;13.38;3.35;;;;;;;21.97;42.75;97068.84;4456078;32;20097;-80
2023/04/24 10:30:46;;;;;;;8.38;3.05;;;;;;;21.44;44.35;97072.59;4455780;32;20093;-81
2023/04/24 10:33:13;;;;;;;7.90;3.08;;;;;;;21.30;44.88;97076.66;4455991;32;20126;-81
2023/04/24 10:35:42;;;;;;;10.40;3.12;;;;;;;21.24;44.68;97072.81;4441913;32;20101;-80
2023/04/24 10:38:12;;;;;;;9.32;3.30;;;;;;;20.88;45.25;97072.09;4456041;32;20166;-81
2023/04/24 10:40:40;;;;;;;7.95;3.05;;;;;;;20.70;46.87;97066.06;4456135;32;20084;-81
2023/04/24 10:43:10;;;;;;;9.02;3.20;;;;;;;20.84;46.39;97069.91;4455625;32;20703;-80
2023/04/24 10:45:39;;;;;;;7.85;3.25;;;;;;;21.05;45.58;97067.75;4456048;32;20108;-81
2023/04/24 10:48:10;;;;;;;8.15;3.05;;;;;;;20.88;46.17;97071.28;4455957;32;20103;-80
2023/04/24 10:50:46;;;;;;;7.87;2.83;;;;;;;20.78;46.30;97076.59;4455709;32;20089;-80
2023/04/24 10:53:23;;;;;;;8.48;3.33;;;;;;;21.11;45.45;97075.03;4455917;32;20132;-80
2023/04/24 10:55:51;;;;;;;10.32;3.42;;;;;;;20.74;46.70;97073.47;4442430;32;20119;-80
2023/04/24 10:58:24;;;;;;;9.57;3.50;;;;;;;20.63;47.02;97075.50;4455534;32;20093;-81
2023/04/24 11:00:59;;;;;;;8.43;3.28;;;;;;;20.73;47.50;97084.91;4455808;32;20077;-81
2023/04/24 11:03:28;;;;;;;9.15;3.20;;;;;;;20.25;47.92;97080.06;4442029;32;20103;-81
2023/04/24 11:05:58;;;;;;;8.32;3.28;;;;;;;20.27;48.52;97072.88;4456046;32;20101;-80
2023/04/24 11:08:30;;;;;;;10.13;3.70;;;;;;;20.32;48.35;97078.50;4455931;32;20097;-80
2023/04/24 11:11:09;;;;;;;8.77;3.45;;;;;;;20.44;47.96;97085.19;4441467;32;20099;-80
2023/04/24 11:13:55;;;;;;;9.45;3.62;;;;;;;20.09;49.47;97085.12;4442067;32;20077;-79
2023/04/24 11:16:34;;;;;;;8.77;3.75;;;;;;;20.36;50.10;97086.88;4455910;32;20436;-77
2023/04/24 11:19:16;;;;;;;16.52;4.57;;;;;;;20.15;49.70;97081.91;4455518;32;20114;-80
2023/04/24 11:21:47;;;;;;;9.30;3.40;;;;;;;20.51;49.82;97085.38;4455742;32;20143;-79
2023/04/24 11:24:38;;;;;;;8.93;3.97;;;;;;;20.65;52.18;97090.13;4455665;32;20581;-79
2023/04/24 11:27:09;;;;;;;10.40;3.70;;;;;;;20.82;51.36;97093.66;4455814;32;20714;-79
2023/04/24 11:29:45;;;;;;;9.88;3.35;;;;;;;21.11;49.95;97090.75;4441577;32;20383;-80
2023/04/24 11:32:24;;;;;;;10.23;3.55;;;;;;;20.66;51.46;97090.94;4441355;32;20085;-79
2023/04/24 11:34:54;;;;;;;8.73;3.70;;;;;;;20.26;53.24;97091.34;4455558;32;20077;-80